Time;durP1;ratioP1;P1;durP2;ratioP2;P2;SDS_P1;SDS_P2;PMS_P1;PMS_P2;Temp;Humidity;BMP_temperature;BMP_pressure;BME280_temperature;BME280_humidity;BME280_pressure;Samples;Min_cycle;Max_cycle;Signal;HPM_P1;HPM_P2
2021/05/29 00:03:23;;;;;;;0.10;0.10;;;;;;;8.60;85.40;102556.56;10557007;28;20432;-67
2021/05/29 00:08:24;;;;;;;0.10;0.10;;;;;;;8.61;84.59;102556.50;10540169;28;20099;-67
2021/05/29 00:13:25;;;;;;;0.10;0.10;;;;;;;8.65;85.06;102554.47;10554540;28;20020;-67
2021/05/29 00:18:26;;;;;;;0.10;0.10;;;;;;;8.66;84.50;102558.81;10548928;28;20047;-67
2021/05/29 00:23:26;;;;;;;0.00;0.00;;;;;;;8.65;83.84;102557.13;10550131;28;20030;-67
2021/05/29 00:28:27;;;;;;;0.10;0.10;;;;;;;8.66;83.79;102560.63;10559899;28;20716;-67
2021/05/29 00:33:27;;;;;;;0.00;0.00;;;;;;;8.65;84.78;102561.59;10549536;28;20026;-67
2021/05/29 00:38:27;;;;;;;0.10;0.10;;;;;;;8.63;84.70;102572.31;10550258;28;20403;-67
2021/05/29 00:43:27;;;;;;;0.10;0.10;;;;;;;8.61;84.86;102569.78;10553483;28;20047;-67
2021/05/29 00:48:28;;;;;;;0.00;0.00;;;;;;;8.60;nan;102575.16;10563005;28;20072;-67
2021/05/29 00:53:33;;;;;;;0.00;0.00;;;;;;;8.61;84.94;102579.56;10549272;28;20023;-67
2021/05/29 00:58:34;;;;;;;0.10;0.10;;;;;;;8.56;84.96;102569.22;10557169;28;20019;-67
2021/05/29 01:03:37;;;;;;;0.10;0.10;;;;;;;8.58;85.00;102569.09;10546156;28;20023;-67
2021/05/29 01:08:37;;;;;;;0.10;0.10;;;;;;;8.57;85.30;102576.22;10556736;28;20366;-67
2021/05/29 01:13:38;;;;;;;0.00;0.00;;;;;;;8.55;85.43;102572.84;10550430;28;20019;-67
2021/05/29 01:18:38;;;;;;;0.10;0.10;;;;;;;8.57;84.97;102570.06;10556804;28;20020;-68
2021/05/29 01:23:38;;;;;;;0.10;0.10;;;;;;;8.58;85.26;102577.06;10549375;28;20047;-66
2021/05/29 01:28:39;;;;;;;0.00;0.00;;;;;;;8.59;85.03;102579.63;10559570;28;20551;-66
2021/05/29 01:33:39;;;;;;;0.00;0.00;;;;;;;8.60;84.94;102583.13;10559486;28;20028;-67
2021/05/29 01:38:40;;;;;;;0.10;0.10;;;;;;;8.59;85.05;102582.28;10550325;28;20269;-67
2021/05/29 01:43:42;;;;;;;0.00;0.00;;;;;;;8.58;84.98;102587.69;10552635;28;20031;-67
2021/05/29 01:48:45;;;;;;;0.08;0.08;;;;;;;8.57;85.09;102580.69;10559549;28;20227;-66
2021/05/29 01:53:45;;;;;;;0.00;0.00;;;;;;;8.55;85.29;102583.47;10543890;28;20200;-66
2021/05/29 01:58:46;;;;;;;0.00;0.00;;;;;;;8.55;85.05;102580.81;10554070;28;20176;-66
2021/05/29 02:03:47;;;;;;;0.10;0.10;;;;;;;8.52;85.53;102591.63;10553491;28;20063;-66
2021/05/29 02:08:47;;;;;;;0.00;0.00;;;;;;;8.49;85.40;102591.81;10548340;28;20171;-66
2021/05/29 02:13:47;;;;;;;0.00;0.00;;;;;;;8.46;85.95;102589.38;10555463;28;20030;-67
2021/05/29 02:18:47;;;;;;;0.00;0.00;;;;;;;8.44;86.22;102585.13;10546994;28;20016;-67
2021/05/29 02:23:50;;;;;;;0.10;0.10;;;;;;;8.41;85.65;102588.84;10557759;28;20320;-67
2021/05/29 02:28:54;;;;;;;0.10;0.10;;;;;;;8.41;86.16;102590.63;10552152;28;20042;-67
2021/05/29 02:33:55;;;;;;;0.10;0.10;;;;;;;8.43;85.59;102586.06;10554217;28;20028;-67
2021/05/29 02:38:55;;;;;;;0.10;0.10;;;;;;;8.46;85.48;102596.50;10567946;28;20024;-67
2021/05/29 02:43:55;;;;;;;0.00;0.00;;;;;;;8.48;85.42;102594.59;10568025;28;20026;-67
2021/05/29 02:48:55;;;;;;;0.10;0.10;;;;;;;8.47;84.96;102598.22;10556567;28;20358;-67
2021/05/29 02:53:56;;;;;;;0.10;0.10;;;;;;;8.41;85.07;102588.84;10587443;22;20048;-91
2021/05/29 02:58:56;;;;;;;0.10;0.10;;;;;;;8.36;85.29;102581.13;10549089;28;20110;-91
2021/05/29 03:03:57;;;;;;;0.10;0.10;;;;;;;8.37;85.61;102589.94;10545916;28;20472;-91
2021/05/29 03:08:58;;;;;;;0.08;0.08;;;;;;;8.38;85.50;102597.88;10567270;28;20132;-91
2021/05/29 03:13:59;;;;;;;0.10;0.10;;;;;;;8.25;85.90;102577.50;10564204;28;20020;-93
2021/05/29 03:18:59;;;;;;;0.00;0.00;;;;;;;8.27;86.33;102575.59;10565932;28;20484;-92
2021/05/29 03:24:00;;;;;;;0.03;0.03;;;;;;;8.25;85.96;102585.47;10563425;28;20052;-93
2021/05/29 03:29:00;;;;;;;0.10;0.10;;;;;;;8.32;85.94;102598.25;10564213;28;20258;-93
2021/05/29 03:34:01;;;;;;;0.00;0.00;;;;;;;8.29;85.86;102593.13;10562527;28;20554;-92
2021/05/29 03:39:02;;;;;;;0.10;0.10;;;;;;;8.36;86.21;102606.84;10564609;28;20036;-92
2021/05/29 03:44:03;;;;;;;0.10;0.10;;;;;;;8.26;86.60;102593.34;10562169;28;20445;-93
2021/05/29 03:49:03;;;;;;;0.10;0.10;;;;;;;8.29;86.56;102595.78;10561065;28;20012;-92
2021/05/29 03:54:04;;;;;;;0.00;0.00;;;;;;;8.35;86.60;102602.50;10565238;28;20111;-91
2021/05/29 03:59:04;;;;;;;0.10;0.10;;;;;;;8.33;87.00;102604.41;10561761;28;20012;-92
2021/05/29 04:04:07;;;;;;;0.10;0.10;;;;;;;8.34;86.15;102604.28;10562549;28;20020;-92
2021/05/29 04:09:08;;;;;;;0.00;0.00;;;;;;;8.32;87.02;102602.66;10564821;28;20019;-92
2021/05/29 04:14:09;;;;;;;0.10;0.10;;;;;;;8.34;86.54;102604.28;10558078;28;20546;-92
2021/05/29 04:19:09;;;;;;;0.10;0.10;;;;;;;8.34;86.29;102604.28;10559402;28;20027;-91
2021/05/29 04:24:10;;;;;;;0.10;0.10;;;;;;;8.33;86.47;102602.59;10561994;28;20023;-92
2021/05/29 04:29:10;;;;;;;0.10;0.10;;;;;;;8.35;86.41;102599.84;10562076;28;20070;-92
2021/05/29 04:34:11;;;;;;;0.10;0.10;;;;;;;8.32;86.02;102592.94;10560843;28;20258;-92
2021/05/29 04:39:11;;;;;;;0.00;0.00;;;;;;;8.45;86.52;102618.69;10561726;28;20024;-92
2021/05/29 04:44:12;;;;;;;0.10;0.10;;;;;;;8.41;85.88;102595.94;10559135;28;20012;-92
2021/05/29 04:49:12;;;;;;;0.10;0.10;;;;;;;8.40;86.05;102595.09;10560429;28;20121;-92
2021/05/29 04:54:13;;;;;;;0.10;0.10;;;;;;;8.54;86.15;102616.28;10556594;28;20270;-92
2021/05/29 04:59:13;;;;;;;0.10;0.10;;;;;;;8.51;85.92;102615.63;10559964;28;20015;-93
2021/05/29 05:04:13;;;;;;;0.10;0.10;;;;;;;8.51;85.66;102620.94;10567295;28;20023;-92
2021/05/29 05:09:14;;;;;;;0.10;0.10;;;;;;;8.52;85.69;102626.16;10559571;28;20559;-92
2021/05/29 05:14:14;;;;;;;0.10;0.10;;;;;;;8.52;85.69;102620.84;10563224;28;20107;-93
2021/05/29 05:19:15;;;;;;;0.00;0.00;;;;;;;8.48;85.45;102613.19;10562245;28;20113;-92
2021/05/29 05:24:15;;;;;;;0.10;0.10;;;;;;;8.64;85.71;102639.56;10562113;28;20070;-92
2021/05/29 05:29:15;;;;;;;0.10;0.10;;;;;;;8.62;85.29;102639.69;10559188;28;20012;-92
2021/05/29 05:34:16;;;;;;;0.10;0.10;;;;;;;8.59;85.17;102634.56;10562160;28;20277;-93
2021/05/29 05:39:16;;;;;;;0.10;0.10;;;;;;;8.54;85.21;102641.97;10561242;28;20294;-92
2021/05/29 05:44:17;;;;;;;0.00;0.00;;;;;;;8.56;85.46;102646.25;10558473;28;20392;-93
2021/05/29 05:49:17;;;;;;;0.10;0.10;;;;;;;8.59;85.75;102654.00;10562794;28;20069;-92
2021/05/29 05:54:17;;;;;;;0.00;0.00;;;;;;;8.70;84.60;102663.09;10562706;28;20636;-92
2021/05/29 05:59:18;;;;;;;0.10;0.10;;;;;;;8.69;84.76;102653.41;10570296;28;20024;-92
2021/05/29 06:04:18;;;;;;;0.00;0.00;;;;;;;8.75;83.83;102661.81;10567915;28;20264;-92
2021/05/29 06:09:18;;;;;;;0.00;0.00;;;;;;;8.82;83.34;102670.25;10574347;28;20111;-92
2021/05/29 06:19:38;;;;;;;0.00;0.00;;;;;;;9.10;81.64;102687.81;10566312;28;20274;-92
2021/05/29 06:24:39;;;;;;;0.10;0.10;;;;;;;9.15;81.84;102682.19;10570046;28;20019;-91
2021/05/29 06:29:39;;;;;;;0.00;0.00;;;;;;;9.17;81.55;102685.59;10569428;28;20020;-93
2021/05/29 06:34:40;;;;;;;0.03;0.03;;;;;;;9.24;81.62;102690.38;10571824;28;20028;-92
2021/05/29 06:39:44;;;;;;;0.10;0.10;;;;;;;9.28;81.62;102688.38;10569505;28;20398;-93
2021/05/29 06:44:44;;;;;;;0.10;0.10;;;;;;;9.34;82.13;102693.28;10575272;28;20020;-93
2021/05/29 06:49:45;;;;;;;0.10;0.10;;;;;;;9.33;81.28;102686.25;10568477;28;20028;-93
2021/05/29 06:59:48;;;;;;;0.10;0.10;;;;;;;9.65;80.25;102699.13;10564740;28;20027;-93
2021/05/29 07:04:51;;;;;;;0.03;0.03;;;;;;;9.68;78.89;102689.09;10565866;28;20020;-93
2021/05/29 07:10:03;;;;;;;0.10;0.10;;;;;;;9.72;78.59;102706.59;10580146;28;20016;-93
2021/05/29 07:15:09;;;;;;;0.10;0.10;;;;;;;9.62;78.78;102692.19;10575561;28;20552;-94
2021/05/29 07:20:10;;;;;;;0.10;0.10;;;;;;;9.66;80.30;102706.16;10577996;28;20050;-93
2021/05/29 07:25:12;;;;;;;0.00;0.00;;;;;;;9.67;79.37;102707.84;10579851;28;20030;-93
2021/05/29 07:30:13;;;;;;;0.10;0.10;;;;;;;9.64;79.10;102710.72;10568816;28;20024;-92
2021/05/29 07:35:13;;;;;;;0.10;0.10;;;;;;;9.79;78.92;102712.31;10546361;28;20024;-92
2021/05/29 07:40:40;;;;;;;0.10;0.10;;;;;;;9.76;77.12;102723.19;10542476;28;20024;-92
2021/05/29 07:45:45;;;;;;;0.40;0.20;;;;;;;9.83;78.05;102726.25;10547624;28;20050;-91
2021/05/29 07:50:58;;;;;;;0.05;0.05;;;;;;;9.96;77.40;102746.59;10530017;28;20067;-92
2021/05/29 07:56:00;;;;;;;0.10;0.10;;;;;;;9.91;77.06;102738.06;10533750;28;20119;-91
2021/05/29 08:01:01;;;;;;;0.10;0.10;;;;;;;10.08;77.39;102760.00;10573674;23;20506;-65
2021/05/29 08:06:03;;;;;;;0.10;0.10;;;;;;;10.12;78.75;102753.47;10579442;28;20028;-66
2021/05/29 08:11:04;;;;;;;0.10;0.10;;;;;;;10.21;79.30;102752.84;10579187;28;20057;-66
2021/05/29 08:16:04;;;;;;;0.10;0.10;;;;;;;10.21;77.37;102752.84;10560655;28;20092;-73
2021/05/29 08:21:05;;;;;;;0.10;0.10;;;;;;;10.28;77.96;102750.63;10559309;28;20513;-66
2021/05/29 08:26:07;;;;;;;0.10;0.10;;;;;;;10.20;77.46;102757.28;10578756;28;20039;-66
2021/05/29 08:31:07;;;;;;;0.10;0.10;;;;;;;10.26;78.26;102764.00;10578360;28;20023;-65
2021/05/29 08:36:08;;;;;;;0.10;0.10;;;;;;;10.35;77.72;102751.84;10578290;28;20087;-66
2021/05/29 08:41:10;;;;;;;0.10;0.10;;;;;;;10.40;78.08;102763.03;10578061;28;20497;-65
2021/05/29 08:46:10;;;;;;;0.10;0.10;;;;;;;10.46;77.50;102762.59;10578343;28;20016;-65
2021/05/29 08:51:14;;;;;;;0.10;0.10;;;;;;;10.46;78.30;102767.06;10577529;28;20493;-66
2021/05/29 08:56:17;;;;;;;0.10;0.10;;;;;;;10.37;77.54;102772.09;10557651;28;20047;-65
2021/05/29 09:01:19;;;;;;;0.10;0.10;;;;;;;10.32;77.65;102766.25;10534858;28;20035;-65
2021/05/29 09:06:31;;;;;;;0.10;0.10;;;;;;;10.52;77.97;102779.94;10535146;28;20024;-66
2021/05/29 09:17:14;;;;;;;0.10;0.10;;;;;;;10.63;76.76;102790.69;10535172;28;20109;-66
2021/05/29 09:22:15;;;;;;;0.10;0.10;;;;;;;10.72;77.08;102797.16;10554836;28;20023;-74
2021/05/29 09:27:15;;;;;;;0.10;0.10;;;;;;;10.71;77.30;102801.66;10542076;28;20017;-67
2021/05/29 09:32:16;;;;;;;0.10;0.10;;;;;;;10.73;78.12;102796.19;10534886;28;20052;-67
2021/05/29 09:37:20;;;;;;;0.10;0.10;;;;;;;10.71;77.13;102790.13;10558811;28;20038;-65
2021/05/29 09:42:26;;;;;;;0.10;0.10;;;;;;;10.83;76.13;102798.06;10558367;28;20047;-67
2021/05/29 09:47:28;;;;;;;0.10;0.10;;;;;;;11.03;76.45;102790.44;10575913;28;20261;-67
2021/05/29 09:52:31;;;;;;;0.10;0.10;;;;;;;11.12;75.39;102805.75;10576578;28;20027;-67
2021/05/29 09:57:48;;;;;;;0.10;0.10;;;;;;;11.10;75.09;102797.00;10576884;28;20034;-66
2021/05/29 10:03:04;;;;;;;0.10;0.10;;;;;;;11.17;73.94;102803.59;10576421;28;20034;-65
2021/05/29 10:08:05;;;;;;;0.10;0.10;;;;;;;11.32;75.34;102797.09;10575994;28;20041;-65
2021/05/29 10:13:05;;;;;;;0.10;0.10;;;;;;;11.60;74.47;102786.97;10575608;28;20015;-67
2021/05/29 10:18:08;;;;;;;0.10;0.10;;;;;;;11.70;73.84;102795.97;10536529;28;20046;-66
2021/05/29 10:23:09;;;;;;;0.10;0.10;;;;;;;11.50;74.68;102807.34;10533417;28;20266;-73
2021/05/29 10:28:09;;;;;;;0.10;0.10;;;;;;;11.50;74.58;102807.34;10533316;28;20103;-66
2021/05/29 10:33:19;;;;;;;0.10;0.10;;;;;;;11.61;73.87;102807.38;10533198;28;20036;-65
2021/05/29 10:38:22;;;;;;;0.10;0.10;;;;;;;11.64;74.28;102817.81;10553422;28;20031;-66
2021/05/29 10:43:33;;;;;;;0.10;0.10;;;;;;;11.75;73.56;102812.50;10577991;28;20032;-66
2021/05/29 10:48:48;;;;;;;0.10;0.10;;;;;;;11.86;72.94;102821.53;10564269;28;20478;-66
2021/05/29 10:53:56;;;;;;;0.10;0.10;;;;;;;11.96;71.99;102822.53;10590820;22;20051;-70
2021/05/29 10:59:11;;;;;;;0.08;0.08;;;;;;;12.15;71.36;102828.09;10536303;28;20486;-70
2021/05/29 11:04:15;;;;;;;0.10;0.10;;;;;;;12.21;70.45;102826.78;10495830;28;20024;-70
2021/05/29 11:09:17;;;;;;;0.10;0.10;;;;;;;12.21;70.50;102824.09;10496210;28;20021;-71
2021/05/29 11:14:21;;;;;;;0.10;0.10;;;;;;;12.31;70.67;102822.41;10477236;28;20035;-76
2021/05/29 11:19:27;;;;;;;0.10;0.10;;;;;;;12.47;71.25;102806.00;10504405;28;20016;-70
2021/05/29 11:24:33;;;;;;;0.10;0.10;;;;;;;12.76;70.73;102813.47;10518713;28;20549;-70
2021/05/29 11:29:51;;;;;;;0.10;0.10;;;;;;;12.95;68.44;102810.16;10537046;28;20027;-70
2021/05/29 11:34:52;;;;;;;0.10;0.10;;;;;;;13.10;70.01;102812.41;10536382;28;20024;-70
2021/05/29 11:39:52;;;;;;;0.10;0.10;;;;;;;13.18;68.60;102808.22;10536661;28;20016;-71
2021/05/29 11:45:13;;;;;;;0.10;0.10;;;;;;;13.59;67.99;102804.81;10535581;28;20028;-70
2021/05/29 11:50:16;;;;;;;0.10;0.10;;;;;;;14.01;64.75;102802.91;10496760;28;20485;-71
2021/05/29 11:55:18;;;;;;;0.10;0.10;;;;;;;14.02;64.00;102810.00;10493744;28;20083;-70
2021/05/29 12:00:19;;;;;;;0.10;0.10;;;;;;;14.10;65.37;102803.09;10493182;28;20031;-71
2021/05/29 12:05:20;;;;;;;0.10;0.10;;;;;;;14.39;67.12;102809.41;10503609;28;20012;-75
2021/05/29 12:10:21;;;;;;;0.10;0.10;;;;;;;14.55;64.51;102808.09;10496411;28;20016;-71
2021/05/29 12:15:22;;;;;;;0.10;0.10;;;;;;;14.77;64.41;102815.91;10493530;28;20066;-73
2021/05/29 12:20:25;;;;;;;0.10;0.10;;;;;;;15.04;63.19;102817.06;10530152;28;20024;-71
2021/05/29 12:25:29;;;;;;;0.10;0.10;;;;;;;15.42;62.19;102824.28;10516900;28;20027;-71
2021/05/29 12:30:30;;;;;;;0.15;0.15;;;;;;;15.74;62.16;102828.53;10496955;28;20115;-70
2021/05/29 12:35:39;;;;;;;0.10;0.10;;;;;;;15.82;60.60;102828.63;10501849;28;20102;-70
2021/05/29 12:40:54;;;;;;;0.00;0.00;;;;;;;16.34;58.58;102823.66;10530262;28;20031;-73
2021/05/29 12:45:54;;;;;;;0.10;0.10;;;;;;;15.70;59.72;102829.78;10492751;28;20027;-68
2021/05/29 12:51:00;;;;;;;0.08;0.08;;;;;;;15.06;60.95;102826.66;10491881;28;20039;-67
2021/05/29 12:56:18;;;;;;;0.10;0.10;;;;;;;15.04;63.06;102830.47;10479537;28;20024;-68
2021/05/29 13:01:29;;;;;;;0.10;0.10;;;;;;;15.08;62.97;102829.22;10500321;28;20081;-68
2021/05/29 13:12:17;;;;;;;0.10;0.10;;;;;;;15.23;60.87;102825.13;10470655;28;20028;-68
2021/05/29 13:17:29;;;;;;;0.10;0.10;;;;;;;14.99;61.70;102827.38;10468395;28;20036;-68
2021/05/29 13:22:30;;;;;;;0.10;0.10;;;;;;;14.80;62.20;102829.03;10522409;28;20081;-70
2021/05/29 13:27:31;;;;;;;0.10;0.10;;;;;;;14.68;60.82;102828.31;10531105;28;20094;-68
2021/05/29 13:32:31;;;;;;;0.10;0.10;;;;;;;14.76;61.71;102822.25;10509989;28;20111;-69
2021/05/29 13:37:32;;;;;;;0.10;0.10;;;;;;;15.32;61.77;102832.34;10516412;28;20028;-69
2021/05/29 13:42:32;;;;;;;0.10;0.10;;;;;;;15.40;60.82;102831.63;10512947;28;20068;-69
2021/05/29 13:47:33;;;;;;;0.10;0.10;;;;;;;15.22;60.82;102833.34;10532132;28;20027;-69
2021/05/29 13:52:33;;;;;;;0.10;0.10;;;;;;;14.97;61.25;102832.03;10531453;28;20482;-69
2021/05/29 13:57:34;;;;;;;0.00;0.00;;;;;;;14.59;64.26;102847.06;10532005;28;20028;-69
2021/05/29 14:02:34;;;;;;;0.10;0.10;;;;;;;14.44;64.36;102843.88;10531382;28;20020;-69
2021/05/29 14:07:35;;;;;;;0.10;0.10;;;;;;;14.72;62.31;102842.31;10526546;28;20031;-69
2021/05/29 14:12:36;;;;;;;0.10;0.10;;;;;;;14.55;63.25;102845.66;10531455;28;20024;-68
2021/05/29 14:17:37;;;;;;;0.10;0.10;;;;;;;14.24;63.10;102846.47;10534967;28;20490;-68
2021/05/29 14:22:37;;;;;;;0.10;0.10;;;;;;;14.17;65.18;102841.78;10538955;28;20023;-68
2021/05/29 14:27:39;;;;;;;0.10;0.10;;;;;;;14.32;65.88;102845.81;10537483;28;20020;-68
2021/05/29 14:32:39;;;;;;;0.10;0.10;;;;;;;14.60;65.57;102832.66;10538430;28;20035;-68
2021/05/29 14:37:39;;;;;;;0.10;0.10;;;;;;;14.87;63.62;102834.72;10540266;28;20031;-69
2021/05/29 14:42:40;;;;;;;0.10;0.10;;;;;;;15.01;62.42;102833.44;10539816;28;20066;-68
2021/05/29 14:47:40;;;;;;;0.10;0.10;;;;;;;15.09;61.43;102831.75;10541980;28;20466;-68
2021/05/29 14:52:41;;;;;;;0.10;0.10;;;;;;;15.28;61.31;102838.16;10539628;28;20266;-67
2021/05/29 14:57:41;;;;;;;0.10;0.10;;;;;;;15.31;61.49;102846.75;10539379;28;20290;-67
2021/05/29 15:02:43;;;;;;;0.10;0.10;;;;;;;15.20;61.68;102841.53;10538558;28;20394;-67
2021/05/29 15:07:43;;;;;;;0.10;0.10;;;;;;;15.21;62.09;102843.22;10539709;28;20355;-68
2021/05/29 15:12:44;;;;;;;0.10;0.10;;;;;;;15.05;60.48;102841.09;10529688;28;20079;-68
2021/05/29 15:17:44;;;;;;;0.10;0.10;;;;;;;15.00;62.21;102846.03;10537457;28;20481;-68
2021/05/29 15:22:45;;;;;;;0.10;0.10;;;;;;;15.05;62.22;102848.31;10519660;28;20020;-69
2021/05/29 15:27:45;;;;;;;0.10;0.10;;;;;;;15.00;64.01;102845.19;10537710;28;20101;-68
2021/05/29 15:32:46;;;;;;;0.10;0.10;;;;;;;15.00;63.06;102845.19;10538130;28;20092;-68
2021/05/29 15:37:46;;;;;;;0.10;0.10;;;;;;;14.93;62.13;102840.38;10537543;28;20386;-68
2021/05/29 15:42:46;;;;;;;0.10;0.10;;;;;;;14.93;62.84;102840.38;10537132;28;20028;-69
2021/05/29 15:47:46;;;;;;;0.10;0.10;;;;;;;14.95;64.06;102834.84;10536495;28;20020;-68
2021/05/29 15:52:47;;;;;;;0.10;0.10;;;;;;;14.76;61.58;102838.34;10536362;28;20032;-68
2021/05/29 15:57:48;;;;;;;0.10;0.10;;;;;;;14.63;63.24;102838.63;10537026;28;20061;-68
2021/05/29 16:02:48;;;;;;;0.10;0.10;;;;;;;14.40;63.27;102840.63;10536361;28;20111;-67
2021/05/29 16:07:48;;;;;;;0.10;0.10;;;;;;;14.38;63.92;102836.38;10536803;28;20385;-68
2021/05/29 16:12:49;;;;;;;0.10;0.10;;;;;;;14.43;65.11;102842.19;10534526;28;20270;-67
2021/05/29 16:17:50;;;;;;;0.10;0.10;;;;;;;14.32;64.74;102847.66;10535893;28;20028;-68
2021/05/29 16:22:51;;;;;;;0.10;0.10;;;;;;;14.27;64.14;102848.88;10535521;28;20028;-68
2021/05/29 16:27:52;;;;;;;0.10;0.10;;;;;;;14.16;64.75;102840.06;10535693;28;20099;-68
2021/05/29 16:32:57;;;;;;;0.10;0.10;;;;;;;13.98;64.63;102832.66;10532745;28;20016;-67
2021/05/29 16:37:58;;;;;;;0.10;0.10;;;;;;;13.95;65.57;102830.25;10535288;28;20016;-68
2021/05/29 16:42:59;;;;;;;0.10;0.10;;;;;;;13.98;64.75;102832.66;10533660;28;20066;-68
2021/05/29 16:47:59;;;;;;;0.10;0.10;;;;;;;13.90;65.76;102826.25;10535504;28;20102;-68
2021/05/29 16:53:01;;;;;;;0.10;0.10;;;;;;;13.74;65.68;102840.13;10534160;28;20024;-68
2021/05/29 16:58:02;;;;;;;0.10;0.10;;;;;;;13.58;65.58;102844.13;10534483;28;20083;-67
2021/05/29 17:03:02;;;;;;;0.10;0.10;;;;;;;13.49;66.74;102841.34;10533055;28;20205;-68
2021/05/29 17:08:02;;;;;;;0.10;0.10;;;;;;;13.38;66.87;102846.75;10534304;28;20027;-68
2021/05/29 17:13:03;;;;;;;0.10;0.10;;;;;;;13.28;67.51;102838.66;10515595;28;20062;-68
2021/05/29 17:18:04;;;;;;;0.10;0.10;;;;;;;13.18;67.75;102851.91;10531528;28;20028;-68
2021/05/29 17:23:04;;;;;;;0.10;0.10;;;;;;;13.07;68.56;102857.31;10530799;28;20115;-68
2021/05/29 17:28:04;;;;;;;0.10;0.10;;;;;;;12.96;68.63;102860.84;10533389;28;20468;-68
2021/05/29 17:33:07;;;;;;;0.10;0.10;;;;;;;12.84;69.16;102860.03;10533011;28;20054;-68
2021/05/29 17:38:08;;;;;;;0.10;0.10;;;;;;;12.79;69.03;102861.38;10533369;28;20360;-68
2021/05/29 17:43:09;;;;;;;0.10;0.10;;;;;;;12.69;69.50;102861.28;10529838;28;20027;-68
2021/05/29 17:48:09;;;;;;;0.10;0.10;;;;;;;12.61;70.15;102863.69;10532913;28;20470;-68
2021/05/29 17:53:10;;;;;;;0.10;0.10;;;;;;;12.53;70.97;102863.47;10512814;28;20123;-68
2021/05/29 17:58:29;;;;;;;0.10;0.10;;;;;;;12.43;71.07;102868.69;10541413;28;20036;-69
2021/05/29 18:03:31;;;;;;;0.10;0.10;;;;;;;12.34;71.87;102864.09;10541257;28;20039;-68
2021/05/29 18:08:31;;;;;;;0.10;0.10;;;;;;;12.25;71.87;102871.00;10538460;28;20024;-68
2021/05/29 18:13:34;;;;;;;0.10;0.10;;;;;;;12.12;72.48;102871.09;10517771;28;20024;-68
2021/05/29 18:18:34;;;;;;;0.10;0.10;;;;;;;12.01;73.00;102873.72;10531978;28;20024;-68
2021/05/29 18:23:35;;;;;;;0.10;0.10;;;;;;;11.94;73.16;102877.88;10538623;28;20085;-68
2021/05/29 18:28:35;;;;;;;0.10;0.10;;;;;;;11.83;73.87;102878.66;10506910;28;20488;-68
2021/05/29 18:33:39;;;;;;;0.10;0.10;;;;;;;11.68;74.18;102875.31;10527430;28;20019;-68
2021/05/29 18:43:58;;;;;;;0.10;0.10;;;;;;;11.37;75.01;102879.44;10532757;28;20184;-69
2021/05/29 18:49:01;;;;;;;0.10;0.10;;;;;;;11.21;75.15;102879.75;10532651;28;20024;-67
2021/05/29 18:54:02;;;;;;;0.10;0.10;;;;;;;11.04;76.05;102885.47;10532106;28;20206;-67
2021/05/29 18:59:08;;;;;;;0.10;0.10;;;;;;;10.90;77.09;102886.44;10515052;28;20032;-67
2021/05/29 19:04:13;;;;;;;0.10;0.10;;;;;;;10.73;77.40;102892.16;10505661;28;20111;-67
2021/05/29 19:09:17;;;;;;;0.10;0.10;;;;;;;10.54;77.60;102890.81;10532530;28;20467;-68
2021/05/29 19:14:18;;;;;;;;;;;;;;;10.40;77.53;102899.75;10503772;28;20025;-68
2021/05/29 19:19:19;;;;;;;0.10;0.10;;;;;;;10.29;78.08;102899.66;10533106;28;19930;-68
2021/05/29 19:24:31;;;;;;;0.10;0.10;;;;;;;10.13;79.09;102901.66;10536836;28;20043;-69
2021/05/29 19:29:31;;;;;;;0.13;0.13;;;;;;;9.95;79.10;102915.25;10518428;28;20022;-69
2021/05/29 19:45:22;;;;;;;0.10;0.10;;;;;;;9.47;80.67;102920.22;10536532;28;20020;-69
2021/05/29 20:27:14;;;;;;;0.10;0.10;;;;;;;8.59;85.50;102946.22;10508690;28;20020;-69
2021/05/29 20:32:15;;;;;;;0.10;0.10;;;;;;;8.51;86.01;102945.81;10492576;28;20055;-68
2021/05/29 20:37:16;;;;;;;0.00;0.00;;;;;;;8.46;87.09;102949.72;10524340;28;20020;-69
2021/05/29 20:42:16;;;;;;;0.10;0.10;;;;;;;8.41;86.73;102955.31;10505219;28;20096;-69
2021/05/29 20:47:17;;;;;;;0.10;0.10;;;;;;;8.31;86.46;102960.28;10502049;28;20471;-69
2021/05/29 20:52:18;;;;;;;0.00;0.00;;;;;;;8.26;87.69;102956.19;10516703;28;20021;-69
2021/05/29 20:57:18;;;;;;;0.10;0.10;;;;;;;8.21;87.73;102959.13;10517795;28;20038;-69
2021/05/29 21:02:18;;;;;;;0.10;0.10;;;;;;;8.18;87.64;102958.47;10509247;28;20266;-69
2021/05/29 21:07:21;;;;;;;0.10;0.10;;;;;;;8.11;87.74;102952.66;10528805;28;20264;-69
2021/05/29 21:12:21;;;;;;;0.10;0.10;;;;;;;8.03;87.87;102953.13;10527161;28;20364;-69
2021/05/29 21:22:22;;;;;;;0.10;0.10;;;;;;;7.96;88.43;102959.72;10524014;28;20536;-69
2021/05/29 21:27:22;;;;;;;0.05;0.05;;;;;;;7.86;88.30;102950.59;10491756;28;20470;-69
2021/05/29 21:32:22;;;;;;;0.10;0.10;;;;;;;7.80;88.92;102958.91;10489992;28;20016;-69
2021/05/29 21:37:23;;;;;;;0.10;0.10;;;;;;;7.74;88.74;102964.56;10523104;28;20024;-68
2021/05/29 21:42:24;;;;;;;0.00;0.00;;;;;;;7.69;89.21;102967.50;10513506;28;20046;-69
2021/05/29 21:52:43;;;;;;;0.10;0.10;;;;;;;7.61;89.71;102967.06;10523566;28;20036;-69
2021/05/29 21:57:44;;;;;;;0.10;0.10;;;;;;;7.59;89.42;102966.28;10531527;28;20035;-68
2021/05/29 22:02:45;;;;;;;0.10;0.10;;;;;;;7.52;89.15;102959.63;10531170;28;20741;-68
2021/05/29 22:07:45;;;;;;;0.10;0.10;;;;;;;7.47;89.71;102965.19;10521595;28;20028;-68
2021/05/29 22:12:54;;;;;;;0.00;0.00;;;;;;;7.42;90.15;102964.63;10489312;28;20040;-68
2021/05/29 22:33:18;;;;;;;0.03;0.03;;;;;;;7.21;90.95;102966.66;10490080;28;20103;-68
2021/05/29 22:38:20;;;;;;;0.00;0.00;;;;;;;7.13;90.82;102963.59;10492078;28;20013;-68
2021/05/29 22:43:21;;;;;;;0.00;0.00;;;;;;;7.06;91.32;102968.34;10497373;28;20112;-67
2021/05/29 22:48:22;;;;;;;0.10;0.10;;;;;;;6.99;91.62;102972.28;10478409;28;20108;-69
2021/05/29 22:53:22;;;;;;;0.00;0.00;;;;;;;6.95;92.08;102978.66;10525802;28;20020;-68
2021/05/29 22:58:22;;;;;;;0.10;0.10;;;;;;;6.91;92.01;102975.34;10537609;28;20020;-68
2021/05/29 23:03:23;;;;;;;0.10;0.10;;;;;;;6.89;91.95;102973.69;10510863;28;20475;-69
2021/05/29 23:08:23;;;;;;;0.10;0.10;;;;;;;6.83;92.27;102979.34;10495095;28;20016;-68
2021/05/29 23:13:23;;;;;;;0.00;0.00;;;;;;;6.76;92.45;102986.75;10511423;28;20427;-68
2021/05/29 23:18:25;;;;;;;0.10;0.10;;;;;;;6.69;92.31;102980.94;10536551;28;20024;-68
2021/05/29 23:23:25;;;;;;;0.00;0.00;;;;;;;6.61;92.30;102982.28;10536801;28;20047;-68
2021/05/29 23:28:26;;;;;;;0.00;0.00;;;;;;;6.49;92.23;102986.44;10518916;28;20100;-68
2021/05/29 23:33:26;;;;;;;0.10;0.10;;;;;;;6.34;92.58;102981.00;10512765;28;20028;-68
2021/05/29 23:38:27;;;;;;;0.00;0.00;;;;;;;6.32;92.93;102984.66;10517993;28;20371;-68
2021/05/29 23:43:27;;;;;;;0.03;0.03;;;;;;;6.28;92.90;102988.38;10535327;28;20023;-68
2021/05/29 23:48:27;;;;;;;0.10;0.10;;;;;;;6.25;93.63;102989.38;10532867;28;20102;-68
2021/05/29 23:53:28;;;;;;;0.00;0.00;;;;;;;6.23;93.74;102979.81;10517269;28;20265;-68
2021/05/29 23:58:36;;;;;;;0.00;0.00;;;;;;;6.17;93.65;102980.09;10529433;28;20280;-68
